Time;durP1;ratioP1;P1;durP2;ratioP2;P2;SDS_P1;SDS_P2;PMS_P1;PMS_P2;Temp;Humidity;BMP_temperature;BMP_pressure;BME280_temperature;BME280_humidity;BME280_pressure;Samples;Min_cycle;Max_cycle;Signal;HPM_P1;HPM_P2
2023/11/16 00:00:30;;;;;;;3.13;1.50;;;8.10;99.90;7.90;100419.00;;;;4880866;28;93067;-65
2023/11/16 00:02:55;;;;;;;3.83;1.40;;;8.10;99.90;7.90;100413.00;;;;4891816;28;92875;-67
2023/11/16 00:05:21;;;;;;;2.97;1.50;;;8.10;99.90;7.90;100415.00;;;;4878179;28;121717;-66
2023/11/16 00:07:50;;;;;;;1.37;1.27;;;8.10;99.90;7.90;100401.00;;;;4888551;28;107816;-65
2023/11/16 00:10:19;;;;;;;3.43;1.90;;;8.10;99.90;7.90;100412.00;;;;4890264;28;102218;-66
2023/11/16 00:12:45;;;;;;;1.73;1.57;;;8.10;99.90;7.90;100402.00;;;;4891215;28;92749;-66
2023/11/16 00:15:11;;;;;;;1.87;1.17;;;8.10;99.90;7.90;100411.00;;;;4891420;28;118631;-66
2023/11/16 00:17:37;;;;;;;1.80;1.47;;;8.10;99.90;7.90;100399.00;;;;4891808;28;92904;-64
2023/11/16 00:20:09;;;;;;;4.47;1.07;;;8.10;99.90;7.90;100411.00;;;;4889862;28;109674;-66
2023/11/16 00:22:34;;;;;;;5.70;2.03;;;8.10;99.90;8.00;100419.00;;;;4888372;28;93045;-66
2023/11/16 00:25:05;;;;;;;2.07;1.73;;;8.10;99.90;7.90;100409.00;;;;4890490;28;104075;-66
2023/11/16 00:27:32;;;;;;;4.67;1.87;;;8.10;99.90;7.90;100414.00;;;;4891650;28;92931;-66
2023/11/16 00:29:58;;;;;;;2.13;1.30;;;8.10;99.90;7.90;100420.00;;;;4872791;28;93496;-67
2023/11/16 00:32:24;;;;;;;1.70;1.60;;;8.10;99.90;8.00;100413.00;;;;4892530;28;92930;-64
2023/11/16 00:34:50;;;;;;;5.13;1.37;;;8.10;99.90;7.90;100417.00;;;;4893105;28;116258;-64
2023/11/16 00:37:16;;;;;;;1.43;1.07;;;8.10;99.90;8.00;100414.00;;;;4888190;28;113431;-66
2023/11/16 00:39:41;;;;;;;4.57;2.03;;;8.60;99.90;8.00;100411.00;;;;4891175;28;92852;-65
2023/11/16 00:42:07;;;;;;;3.20;1.20;;;8.10;99.90;8.00;100415.00;;;;4878268;28;93022;-65
2023/11/16 00:44:34;;;;;;;3.50;1.47;;;8.10;99.90;8.00;100417.00;;;;4886748;28;124451;-65
2023/11/16 00:47:00;;;;;;;1.13;1.03;;;8.10;99.90;8.00;100408.00;;;;4898028;28;94603;-65
2023/11/16 00:49:25;;;;;;;1.17;1.03;;;8.10;99.90;8.00;100413.00;;;;4894518;28;93118;-65
2023/11/16 00:51:52;;;;;;;1.73;1.20;;;8.10;99.90;8.00;100416.00;;;;4888919;28;93014;-65
2023/11/16 00:54:18;;;;;;;2.73;1.67;;;8.10;99.90;8.00;100418.00;;;;4889709;28;121468;-64
2023/11/16 00:56:46;;;;;;;3.23;1.27;;;8.10;99.90;8.00;100416.00;;;;4889597;28;93437;-64
2023/11/16 00:59:12;;;;;;;3.70;1.80;;;8.10;99.90;8.00;100410.00;;;;4887385;28;92946;-65
2023/11/16 01:01:38;;;;;;;1.67;1.27;;;8.10;99.90;7.90;100396.00;;;;4895026;28;92007;-65
2023/11/16 01:04:06;;;;;;;4.30;1.57;;;9.00;99.90;7.90;100403.00;;;;4892083;28;93573;-66
2023/11/16 01:06:32;;;;;;;4.07;1.80;;;8.10;99.90;7.90;100417.00;;;;4892461;28;92934;-64
2023/11/16 01:08:59;;;;;;;1.63;1.53;;;8.00;99.90;7.90;100412.00;;;;4889703;28;93966;-66
2023/11/16 01:11:28;;;;;;;3.43;1.87;;;8.00;99.90;7.90;100413.00;;;;4891557;28;92767;-68
2023/11/16 01:13:57;;;;;;;3.17;1.43;;;8.00;99.90;7.80;100411.00;;;;4845079;28;93181;-67
2023/11/16 01:16:30;;;;;;;2.90;1.67;;;8.00;99.90;7.80;100418.00;;;;4882848;28;120199;-67
2023/11/16 01:18:59;;;;;;;4.30;1.50;;;7.60;99.90;7.80;100411.00;;;;4890144;28;93237;-66
2023/11/16 01:21:26;;;;;;;3.10;1.23;;;7.90;99.90;7.70;100420.00;;;;4892020;28;92992;-64
2023/11/16 01:23:53;;;;;;;3.97;1.57;;;8.40;99.90;7.70;100415.00;;;;4869709;28;93032;-65
2023/11/16 01:26:20;;;;;;;1.37;1.07;;;7.90;99.90;7.70;100414.00;;;;4890916;28;92334;-65
2023/11/16 01:28:49;;;;;;;2.10;1.40;;;7.80;99.90;7.60;100421.00;;;;4892418;28;92572;-65
2023/11/16 01:31:19;;;;;;;1.23;1.13;;;7.80;99.90;7.60;100414.00;;;;4889153;28;93209;-64
2023/11/16 01:33:46;;;;;;;3.50;1.70;;;7.70;99.90;7.50;100411.00;;;;4890006;28;93673;-65
2023/11/16 01:36:13;;;;;;;1.40;1.30;;;7.70;99.90;7.40;100411.00;;;;4888754;28;93807;-65
2023/11/16 01:38:39;;;;;;;2.83;1.03;;;7.60;99.90;7.40;100406.00;;;;4890896;28;93045;-65
2023/11/16 01:41:06;;;;;;;2.87;1.37;;;7.50;99.90;7.30;100402.00;;;;4890220;28;93121;-65
2023/11/16 01:43:36;;;;;;;3.40;1.10;;;7.50;99.90;7.30;100406.00;;;;4891540;28;95100;-65
2023/11/16 01:46:06;;;;;;;1.63;1.30;;;7.40;99.90;7.30;100403.00;;;;4890237;28;95554;-65
2023/11/16 01:48:39;;;;;;;2.20;0.60;;;7.40;99.90;7.20;100411.00;;;;4888600;28;93274;-65
2023/11/16 01:51:08;;;;;;;3.57;1.23;;;7.40;99.90;7.30;100408.00;;;;4890228;28;92115;-64
2023/11/16 01:53:39;;;;;;;1.40;1.10;;;7.40;99.90;7.30;100412.00;;;;4893065;28;93398;-63
2023/11/16 01:56:08;;;;;;;4.57;2.03;;;7.50;99.90;7.30;100406.00;;;;4890727;28;98288;-65
2023/11/16 01:58:34;;;;;;;0.70;0.63;;;7.50;99.90;7.40;100406.00;;;;4890051;28;93910;-64
2023/11/16 02:01:04;;;;;;;3.87;0.93;;;7.50;99.90;7.40;100423.00;;;;4894812;28;92976;-63
2023/11/16 02:03:31;;;;;;;0.97;0.80;;;7.50;99.90;7.50;100407.00;;;;4870439;28;108116;-64
2023/11/16 02:05:57;;;;;;;1.10;1.00;;;7.60;99.90;7.50;100413.00;;;;4887965;28;92849;-64
2023/11/16 02:08:23;;;;;;;1.53;1.03;;;7.60;99.90;7.50;100414.00;;;;4889722;28;106677;-65
2023/11/16 02:10:49;;;;;;;1.50;0.60;;;7.60;99.90;7.50;100413.00;;;;4886444;28;92601;-65
2023/11/16 02:13:21;;;;;;;3.90;1.00;;;7.60;99.90;7.50;100407.00;;;;4887643;28;93087;-66
2023/11/16 02:15:55;;;;;;;1.27;1.00;;;7.70;99.90;7.50;100417.00;;;;4892470;28;93575;-65
2023/11/16 02:18:23;;;;;;;0.80;0.80;;;7.60;99.90;7.50;100414.00;;;;4881214;28;93067;-65
2023/11/16 02:20:49;;;;;;;2.70;1.00;;;8.80;99.90;7.50;100404.00;;;;4889228;28;92928;-65
2023/11/16 02:23:17;;;;;;;1.20;0.87;;;7.70;99.90;7.50;100402.00;;;;4882821;28;93524;-64
2023/11/16 02:25:51;;;;;;;2.80;1.33;;;7.70;99.90;7.40;100401.00;;;;4885754;28;94596;-64
2023/11/16 02:28:19;;;;;;;0.70;0.70;;;7.60;99.90;7.40;100405.00;;;;4891488;28;92738;-65
2023/11/16 02:30:51;;;;;;;1.30;0.97;;;7.50;99.90;7.30;100404.00;;;;4891056;28;93270;-65
2023/11/16 02:33:19;;;;;;;1.13;0.90;;;7.60;99.90;7.30;100398.00;;;;4892340;28;101513;-64
2023/11/16 02:35:44;;;;;;;3.00;0.83;;;7.40;99.90;7.20;100392.00;;;;4878507;28;94803;-65
2023/11/16 02:38:14;;;;;;;0.70;0.70;;;7.40;99.90;7.20;100397.00;;;;4871805;28;100594;-63
2023/11/16 02:40:40;;;;;;;2.30;1.00;;;7.40;99.90;7.20;100396.00;;;;4895682;28;92347;-65
2023/11/16 02:43:06;;;;;;;1.03;0.87;;;7.30;99.90;7.10;100404.00;;;;4893397;28;92893;-65
2023/11/16 02:45:34;;;;;;;1.20;1.10;;;7.30;99.90;7.10;100396.00;;;;4888993;28;121392;-65
2023/11/16 02:48:00;;;;;;;3.03;0.70;;;7.20;99.90;7.00;100391.00;;;;4893060;28;93837;-65
2023/11/16 02:50:26;;;;;;;2.87;1.23;;;7.20;99.90;7.00;100386.00;;;;4890331;28;92936;-64
2023/11/16 02:52:54;;;;;;;0.70;0.60;;;7.20;99.90;7.00;100384.00;;;;4892404;28;93619;-65
2023/11/16 02:55:23;;;;;;;3.80;0.93;;;7.10;99.90;7.00;100388.00;;;;4891639;28;106596;-65
2023/11/16 02:57:49;;;;;;;0.90;0.87;;;7.10;99.90;7.00;100387.00;;;;4890283;28;93012;-64
2023/11/16 03:00:17;;;;;;;0.90;0.87;;;7.10;99.90;7.00;100381.00;;;;4871882;28;93328;-65
2023/11/16 03:02:44;;;;;;;2.13;1.23;;;7.30;99.90;7.00;100395.00;;;;4893194;28;94984;-63
2023/11/16 03:05:14;;;;;;;2.93;1.00;;;7.20;99.90;7.10;100385.00;;;;4893857;28;92551;-65
2023/11/16 03:07:40;;;;;;;1.57;1.20;;;7.60;99.90;7.10;100393.00;;;;4894471;28;93802;-65
2023/11/16 03:10:11;;;;;;;2.67;1.57;;;7.20;99.90;7.10;100387.00;;;;4889954;28;93277;-65
2023/11/16 03:12:38;;;;;;;2.73;0.87;;;7.20;99.90;7.10;100384.00;;;;4890202;28;95003;-65
2023/11/16 03:15:05;;;;;;;1.73;0.90;;;7.30;99.90;7.10;100393.00;;;;4891059;28;93146;-66
2023/11/16 03:17:36;;;;;;;0.97;0.90;;;7.30;99.90;7.20;100390.00;;;;4890351;28;92956;-64
2023/11/16 03:20:03;;;;;;;1.80;1.03;;;7.30;99.90;7.20;100388.00;;;;4889126;28;92819;-65
2023/11/16 03:22:29;;;;;;;0.97;0.73;;;7.30;99.90;7.20;100385.00;;;;4889732;28;114930;-64
2023/11/16 03:24:55;;;;;;;1.60;0.97;;;7.30;99.90;7.20;100389.00;;;;4891469;28;93716;-64
2023/11/16 03:27:21;;;;;;;0.97;0.93;;;7.30;99.90;7.10;100389.00;;;;4879488;28;104432;-64
2023/11/16 03:29:48;;;;;;;1.03;1.00;;;8.80;99.90;7.20;100387.00;;;;4873761;28;97516;-65
2023/11/16 03:32:14;;;;;;;0.43;0.43;;;7.30;99.90;7.20;100383.00;;;;4891438;28;93741;-65
2023/11/16 03:34:39;;;;;;;1.23;0.90;;;7.30;99.90;7.20;100382.00;;;;4895815;28;92826;-64
2023/11/16 03:37:05;;;;;;;2.87;1.30;;;7.30;99.90;7.20;100389.00;;;;4892046;28;109194;-65
2023/11/16 03:39:44;;;;;;;1.33;0.90;;;7.70;99.90;7.30;100390.00;;;;4890648;28;107238;-65
2023/11/16 03:42:09;;;;;;;2.10;0.73;;;7.40;99.90;7.30;100382.00;;;;4894346;28;94420;-65
2023/11/16 03:44:35;;;;;;;1.47;1.07;;;7.30;99.90;7.30;100390.00;;;;4877938;28;121978;-64
2023/11/16 03:47:01;;;;;;;1.20;0.67;;;7.50;99.90;7.30;100391.00;;;;4891349;28;92940;-64
2023/11/16 03:49:26;;;;;;;1.13;0.80;;;7.50;99.90;7.40;100384.00;;;;4892767;28;92725;-66
2023/11/16 03:51:57;;;;;;;1.93;0.83;;;7.50;99.90;7.40;100384.00;;;;4890315;28;121360;-64
2023/11/16 03:54:23;;;;;;;1.10;0.50;;;7.50;99.90;7.40;100377.00;;;;4875300;28;93447;-65
2023/11/16 03:56:53;;;;;;;2.53;0.60;;;7.50;99.90;7.40;100368.00;;;;4875635;28;92495;-64
2023/11/16 03:59:24;;;;;;;1.57;0.80;;;7.60;99.90;7.50;100376.00;;;;4890719;28;95534;-66
2023/11/16 04:01:50;;;;;;;7.50;1.03;;;7.60;99.90;7.50;100373.00;;;;4888733;28;95370;-66
2023/11/16 04:04:17;;;;;;;0.67;0.60;;;7.60;99.90;7.50;100368.00;;;;4890684;28;93505;-66
2023/11/16 04:06:43;;;;;;;0.60;0.60;;;7.60;99.90;7.50;100355.00;;;;4891809;28;93808;-65
2023/11/16 04:09:09;;;;;;;1.07;0.57;;;7.60;99.90;7.50;100361.00;;;;4853431;28;93713;-65
2023/11/16 04:11:45;;;;;;;2.37;1.00;;;7.80;99.90;7.50;100358.00;;;;4876921;28;96174;-64
2023/11/16 04:14:12;;;;;;;2.93;0.83;;;7.70;99.90;7.50;100361.00;;;;4891142;28;93020;-66
2023/11/16 04:16:38;;;;;;;4.03;0.80;;;7.60;99.90;7.60;100359.00;;;;4895870;28;94034;-65
2023/11/16 04:19:04;;;;;;;1.50;0.63;;;7.70;99.90;7.60;100354.00;;;;4893606;28;92122;-65
2023/11/16 04:21:31;;;;;;;0.83;0.73;;;7.70;99.90;7.50;100353.00;;;;4890352;28;107540;-66
2023/11/16 04:23:58;;;;;;;1.27;0.67;;;7.70;99.90;7.50;100357.00;;;;4871150;28;93140;-66
2023/11/16 04:26:36;;;;;;;0.87;0.70;;;7.70;99.90;7.50;100363.00;;;;4875686;28;94276;-65
2023/11/16 04:29:04;;;;;;;3.30;0.93;;;7.70;99.90;7.50;100351.00;;;;4888466;28;92930;-66
2023/11/16 04:31:31;;;;;;;1.87;0.70;;;7.70;99.90;7.40;100343.00;;;;4891812;28;93088;-65
2023/11/16 04:33:57;;;;;;;2.90;0.90;;;7.60;99.90;7.40;100346.00;;;;4890623;28;92960;-66
2023/11/16 04:36:23;;;;;;;0.63;0.63;;;7.50;99.90;7.40;100337.00;;;;4888411;28;92722;-65
2023/11/16 04:38:50;;;;;;;3.80;1.53;;;7.50;99.90;7.40;100336.00;;;;4890799;28;93044;-66
2023/11/16 04:41:16;;;;;;;0.50;0.43;;;7.50;99.90;7.40;100335.00;;;;4887740;28;93305;-66
2023/11/16 04:43:44;;;;;;;0.90;0.87;;;7.50;99.90;7.40;100333.00;;;;4892508;28;98618;-68
2023/11/16 04:46:11;;;;;;;0.77;0.50;;;7.50;99.90;7.40;100337.00;;;;4890045;28;92462;-65
2023/11/16 04:48:43;;;;;;;0.77;0.70;;;8.10;99.90;7.40;100337.00;;;;4894476;28;93001;-66
2023/11/16 04:51:17;;;;;;;0.93;0.50;;;7.60;99.90;7.40;100332.00;;;;4879916;28;94912;-66
2023/11/16 04:53:49;;;;;;;2.40;0.90;;;7.50;99.90;7.50;100322.00;;;;4886240;28;94608;-66
2023/11/16 04:56:15;;;;;;;1.43;0.97;;;7.60;99.90;7.50;100333.00;;;;4893203;28;92757;-65
2023/11/16 04:58:42;;;;;;;1.83;0.70;;;7.60;99.90;7.50;100324.00;;;;4892460;28;92523;-66
2023/11/16 05:01:08;;;;;;;0.60;0.60;;;7.60;99.90;7.50;100337.00;;;;4889341;28;93097;-66
2023/11/16 05:03:34;;;;;;;1.67;0.40;;;7.60;99.90;7.50;100333.00;;;;4892199;28;93784;-67
2023/11/16 05:06:01;;;;;;;0.90;0.70;;;7.60;99.90;7.50;100325.00;;;;4890195;28;108552;-66
2023/11/16 05:08:27;;;;;;;1.80;0.90;;;7.70;99.90;7.60;100334.00;;;;4887255;28;92076;-67
2023/11/16 05:10:52;;;;;;;1.23;1.13;;;7.60;99.90;7.60;100325.00;;;;4887715;28;111454;-65
2023/11/16 05:13:21;;;;;;;1.70;0.63;;;7.70;99.90;7.60;100326.00;;;;4891043;28;92655;-65
2023/11/16 05:15:48;;;;;;;3.83;1.23;;;7.70;99.90;7.60;100317.00;;;;4887847;28;93990;-67
2023/11/16 05:18:14;;;;;;;1.13;0.70;;;7.70;99.90;7.60;100312.00;;;;4891198;28;92979;-67
2023/11/16 05:20:41;;;;;;;2.23;0.77;;;7.70;99.90;7.60;100322.00;;;;4890470;28;115328;-68
2023/11/16 05:23:07;;;;;;;4.53;0.83;;;7.70;99.90;7.60;100318.00;;;;4888699;28;92884;-65
2023/11/16 05:25:34;;;;;;;0.87;0.80;;;7.70;99.90;7.60;100313.00;;;;4891905;28;92916;-66
2023/11/16 05:28:04;;;;;;;0.57;0.40;;;7.70;99.90;7.60;100308.00;;;;4891041;28;93146;-66
2023/11/16 05:30:30;;;;;;;2.10;1.03;;;7.70;99.90;7.60;100315.00;;;;4888842;28;93151;-66
2023/11/16 05:32:56;;;;;;;2.53;0.90;;;7.70;99.90;7.50;100310.00;;;;4869937;28;93243;-66
2023/11/16 05:35:22;;;;;;;2.57;1.03;;;8.20;99.90;7.50;100320.00;;;;4883845;28;109834;-67
2023/11/16 05:37:48;;;;;;;0.73;0.73;;;7.60;99.90;7.40;100320.00;;;;4877872;28;108160;-66
2023/11/16 05:40:14;;;;;;;2.97;1.70;;;7.60;99.90;7.40;100316.00;;;;4882824;28;94463;-67
2023/11/16 05:42:40;;;;;;;1.10;0.90;;;7.60;99.90;7.40;100311.00;;;;4866509;28;95803;-65
2023/11/16 05:45:07;;;;;;;0.93;0.80;;;7.60;99.90;7.40;100309.00;;;;4878525;28;92887;-68
2023/11/16 05:47:33;;;;;;;1.07;0.70;;;7.60;99.90;7.50;100313.00;;;;4888184;28;93093;-66
2023/11/16 05:49:59;;;;;;;0.80;0.70;;;7.60;99.90;7.50;100307.00;;;;4882950;28;121345;-65
2023/11/16 05:52:25;;;;;;;1.50;0.93;;;7.60;99.90;7.50;100297.00;;;;4868321;28;93151;-66
2023/11/16 05:54:50;;;;;;;1.03;0.90;;;7.60;99.90;7.50;100316.00;;;;4868652;28;92900;-66
2023/11/16 05:57:16;;;;;;;0.60;0.50;;;7.60;99.90;7.50;100303.00;;;;4889969;28;106195;-66
2023/11/16 05:59:42;;;;;;;1.33;1.17;;;7.60;99.90;7.50;100306.00;;;;4892279;28;111163;-66
2023/11/16 06:02:09;;;;;;;1.03;0.77;;;7.60;99.90;7.50;100305.00;;;;4885799;28;122412;-66
2023/11/16 06:04:36;;;;;;;2.47;1.03;;;7.80;99.90;7.50;100298.00;;;;4886764;28;94741;-68
2023/11/16 06:07:02;;;;;;;2.50;1.00;;;7.70;99.90;7.50;100304.00;;;;4866582;28;93174;-66
2023/11/16 06:09:28;;;;;;;3.03;0.80;;;7.70;99.90;7.60;100310.00;;;;4867876;28;108543;-66
2023/11/16 06:11:53;;;;;;;0.67;0.67;;;7.70;99.90;7.60;100307.00;;;;4886829;28;120806;-66
2023/11/16 06:14:22;;;;;;;2.73;0.70;;;7.70;99.90;7.60;100305.00;;;;4889515;28;94493;-66
2023/11/16 06:16:48;;;;;;;4.10;0.87;;;7.70;99.90;7.60;100298.00;;;;4891978;28;92816;-67
2023/11/16 06:19:13;;;;;;;4.37;1.57;;;7.70;99.90;7.50;100300.00;;;;4884882;28;116786;-66
2023/11/16 06:21:40;;;;;;;0.90;0.77;;;7.70;99.90;7.50;100292.00;;;;4876826;28;125500;-66
2023/11/16 06:24:07;;;;;;;1.97;1.20;;;7.60;99.90;7.50;100305.00;;;;4890503;28;92837;-67
2023/11/16 06:26:33;;;;;;;0.87;0.87;;;7.60;99.90;7.50;100308.00;;;;4878772;28;92745;-66
2023/11/16 06:28:59;;;;;;;3.10;1.00;;;7.60;99.90;7.50;100292.00;;;;4888534;28;94270;-67
2023/11/16 06:31:25;;;;;;;0.50;0.50;;;7.60;99.90;7.50;100296.00;;;;4876602;28;93136;-66
2023/11/16 06:33:51;;;;;;;1.50;1.00;;;7.60;99.90;7.50;100297.00;;;;4870444;28;109048;-68
2023/11/16 06:36:17;;;;;;;0.60;0.60;;;7.60;99.90;7.50;100295.00;;;;4878958;28;92619;-66
2023/11/16 06:38:43;;;;;;;0.60;0.60;;;7.60;99.90;7.50;100307.00;;;;4884283;28;93513;-66
2023/11/16 06:41:09;;;;;;;1.47;0.97;;;7.70;99.90;7.50;100295.00;;;;4886882;28;93049;-68
2023/11/16 06:43:35;;;;;;;1.30;1.00;;;7.60;99.90;7.50;100292.00;;;;4891259;28;97910;-67
2023/11/16 06:46:02;;;;;;;2.40;1.20;;;7.60;99.90;7.50;100289.00;;;;4891839;28;108207;-68
2023/11/16 06:48:30;;;;;;;5.60;0.93;;;7.60;99.90;7.50;100291.00;;;;4891530;28;92974;-66
2023/11/16 06:50:58;;;;;;;0.47;0.47;;;7.60;99.90;7.60;100295.00;;;;4888363;28;92946;-69
2023/11/16 06:53:25;;;;;;;0.87;0.57;;;7.70;99.90;7.60;100300.00;;;;4873872;28;93887;-69
2023/11/16 06:55:52;;;;;;;1.00;0.80;;;7.70;99.90;7.60;100295.00;;;;4886701;28;97604;-67
2023/11/16 06:58:20;;;;;;;5.83;0.90;;;7.70;99.90;7.70;100288.00;;;;4886435;28;93806;-66
2023/11/16 07:00:50;;;;;;;1.97;1.00;;;7.80;99.90;7.90;100294.00;;;;4885059;28;93577;-67
2023/11/16 07:03:16;;;;;;;1.03;0.67;;;7.90;99.90;8.00;100288.00;;;;4888175;28;92800;-66
2023/11/16 07:05:42;;;;;;;0.37;0.37;;;8.10;99.90;8.10;100281.00;;;;4885712;28;108683;-66
2023/11/16 07:08:09;;;;;;;0.70;0.70;;;8.20;99.90;8.30;100296.00;;;;4858534;28;93605;-69
2023/11/16 07:10:35;;;;;;;1.30;0.70;;;8.30;99.90;8.40;100297.00;;;;4885717;28;92354;-68
2023/11/16 07:13:05;;;;;;;0.30;0.30;;;8.40;99.90;8.40;100290.00;;;;4870274;28;92800;-66
2023/11/16 07:15:32;;;;;;;2.37;0.50;;;8.50;99.90;8.50;100295.00;;;;4888411;28;92922;-67
2023/11/16 07:17:59;;;;;;;0.53;0.53;;;8.50;99.90;8.40;100284.00;;;;4874093;28;93917;-67
2023/11/16 07:20:25;;;;;;;1.50;1.13;;;8.50;99.90;8.40;100288.00;;;;4890149;28;94980;-67
2023/11/16 07:22:50;;;;;;;0.60;0.33;;;8.50;99.90;8.30;100291.00;;;;4873188;28;92940;-68
2023/11/16 07:25:20;;;;;;;1.77;1.00;;;8.40;99.90;8.10;100298.00;;;;4892255;28;111909;-67
2023/11/16 07:27:46;;;;;;;1.07;0.70;;;8.30;99.90;8.00;100295.00;;;;4886452;28;93797;-68
2023/11/16 07:30:12;;;;;;;0.40;0.40;;;8.20;99.90;7.90;100298.00;;;;4887904;28;92785;-68
2023/11/16 07:32:40;;;;;;;1.50;0.60;;;8.10;99.90;7.90;100299.00;;;;4894884;28;92776;-68
2023/11/16 07:35:15;;;;;;;2.70;0.90;;;8.40;99.90;7.80;100306.00;;;;4890833;28;92347;-68
2023/11/16 07:37:45;;;;;;;2.03;0.87;;;8.00;99.90;7.80;100308.00;;;;4886629;28;93012;-68
2023/11/16 07:40:15;;;;;;;0.77;0.60;;;7.90;99.90;7.70;100299.00;;;;4887745;28;100621;-69
2023/11/16 07:42:42;;;;;;;2.73;0.90;;;7.90;99.90;7.70;100299.00;;;;4878991;28;93842;-68
2023/11/16 07:45:09;;;;;;;1.03;0.43;;;7.80;99.90;7.70;100300.00;;;;4891270;28;92950;-68
2023/11/16 07:47:37;;;;;;;2.07;1.03;;;7.90;99.90;7.70;100295.00;;;;4873468;28;95630;-66
2023/11/16 07:50:06;;;;;;;0.83;0.73;;;7.90;99.90;7.70;100284.00;;;;4893335;28;93296;-67
2023/11/16 07:52:37;;;;;;;0.90;0.77;;;7.90;99.90;7.70;100297.00;;;;4879160;28;93236;-67
2023/11/16 07:55:03;;;;;;;0.80;0.80;;;7.90;99.90;7.80;100285.00;;;;4894278;28;92880;-66
2023/11/16 07:57:33;;;;;;;1.30;1.10;;;7.90;99.90;7.80;100289.00;;;;4890664;28;93157;-67
2023/11/16 08:00:07;;;;;;;3.40;0.77;;;7.90;99.90;7.80;100275.00;;;;4894004;28;92773;-66
2023/11/16 08:03:41;;;;;;;1.87;0.90;;;8.00;99.90;7.90;100285.00;;;;4894654;28;93243;-67
2023/11/16 08:05:18;;;;;;;0.70;0.70;;;8.00;99.90;8.00;100281.00;;;;4887100;28;92566;-66
2023/11/16 08:07:49;;;;;;;2.00;0.93;;;8.00;99.90;8.10;100280.00;;;;4893630;28;124923;-67
2023/11/16 08:10:15;;;;;;;3.60;0.60;;;8.10;99.90;8.10;100276.00;;;;4891335;28;94806;-66
2023/11/16 08:12:41;;;;;;;1.07;0.97;;;8.20;99.90;8.20;100274.00;;;;4887660;28;92836;-68
2023/11/16 08:15:07;;;;;;;4.10;1.10;;;8.20;99.90;8.20;100275.00;;;;4889529;28;108969;-69
2023/11/16 08:17:34;;;;;;;1.93;0.83;;;8.30;99.90;8.30;100277.00;;;;4888644;28;93673;-68
2023/11/16 08:20:03;;;;;;;2.93;0.80;;;8.30;99.90;8.30;100275.00;;;;4889474;28;93388;-67
2023/11/16 08:22:28;;;;;;;0.87;0.73;;;8.40;99.90;8.40;100279.00;;;;4894115;28;92769;-69
2023/11/16 08:24:54;;;;;;;1.13;0.63;;;8.40;99.90;8.40;100271.00;;;;4892943;28;107860;-68
2023/11/16 08:27:21;;;;;;;2.17;0.70;;;8.50;99.90;8.50;100270.00;;;;4887910;28;93193;-66
2023/11/16 08:29:46;;;;;;;3.93;1.03;;;8.60;99.90;8.60;100265.00;;;;4870840;28;124593;-65
2023/11/16 08:32:12;;;;;;;1.37;0.67;;;8.60;99.90;8.60;100259.00;;;;4887153;28;110777;-66
2023/11/16 08:34:38;;;;;;;0.93;0.83;;;8.70;99.90;8.70;100264.00;;;;4889517;28;108218;-66
2023/11/16 08:37:03;;;;;;;0.67;0.43;;;8.70;99.90;8.80;100275.00;;;;4876397;28;125373;-66
2023/11/16 08:39:29;;;;;;;0.87;0.47;;;8.80;99.90;8.80;100272.00;;;;4886488;28;109404;-66
2023/11/16 08:41:58;;;;;;;2.13;0.90;;;8.90;99.90;8.80;100272.00;;;;4860748;28;92615;-70
2023/11/16 08:44:25;;;;;;;0.80;0.47;;;8.90;99.90;8.90;100269.00;;;;4893849;28;92728;-67
2023/11/16 08:46:56;;;;;;;3.67;0.63;;;8.90;99.90;8.90;100269.00;;;;4892179;28;92749;-67
2023/11/16 08:49:23;;;;;;;3.27;0.73;;;9.90;99.90;9.00;100275.00;;;;4892227;28;92202;-65
2023/11/16 08:51:58;;;;;;;3.03;0.97;;;9.00;99.90;9.00;100273.00;;;;4892842;28;92874;-67
2023/11/16 08:54:25;;;;;;;1.60;0.80;;;9.00;99.90;9.00;100264.00;;;;4860750;28;93307;-67
2023/11/16 08:56:51;;;;;;;1.30;1.07;;;8.50;99.90;9.10;100269.00;;;;4863448;28;95195;-68
2023/11/16 08:59:17;;;;;;;2.47;1.13;;;9.10;99.90;9.10;100267.00;;;;4886101;28;93789;-66
2023/11/16 09:01:43;;;;;;;1.03;0.70;;;9.10;99.90;9.10;100284.00;;;;4877661;28;92844;-65
2023/11/16 09:04:12;;;;;;;1.60;0.80;;;9.20;99.90;9.10;100284.00;;;;4890796;28;108865;-66
2023/11/16 09:06:41;;;;;;;3.03;0.60;;;9.20;99.90;9.20;100284.00;;;;4895150;28;92497;-67
2023/11/16 09:09:33;;;;;;;0.53;0.53;;;9.20;99.90;9.20;100274.00;;;;4874847;28;93060;-67
2023/11/16 09:11:57;;;;;;;3.73;0.63;;;9.20;99.90;9.20;100285.00;;;;4888145;28;92722;-68
2023/11/16 09:14:23;;;;;;;2.83;1.03;;;9.30;99.90;9.30;100282.00;;;;4874580;28;93854;-67
2023/11/16 09:16:51;;;;;;;1.97;0.67;;;9.30;99.90;9.30;100284.00;;;;4873255;28;95273;-68
2023/11/16 09:19:17;;;;;;;7.20;0.73;;;9.40;99.90;9.40;100277.00;;;;4893578;28;94032;-66
2023/11/16 09:21:45;;;;;;;1.17;0.67;;;9.40;99.90;9.50;100288.00;;;;4873924;28;93542;-66
2023/11/16 09:24:10;;;;;;;1.07;0.47;;;9.50;99.90;9.50;100281.00;;;;4893336;28;92860;-67
2023/11/16 09:26:37;;;;;;;1.13;0.50;;;9.60;99.90;9.60;100281.00;;;;4889838;28;123676;-66
2023/11/16 09:29:06;;;;;;;0.67;0.67;;;9.60;99.90;9.70;100288.00;;;;4893435;28;93400;-67
2023/11/16 09:31:32;;;;;;;2.37;0.60;;;9.70;99.90;9.80;100280.00;;;;4889780;28;93075;-67
2023/11/16 09:34:00;;;;;;;1.87;0.77;;;9.80;99.90;9.80;100256.00;;;;4872515;28;92369;-68
2023/11/16 09:36:27;;;;;;;0.57;0.30;;;9.80;99.90;9.90;100269.00;;;;4890206;28;92740;-67
2023/11/16 09:38:56;;;;;;;1.70;0.80;;;9.90;99.90;9.90;100258.00;;;;4872305;28;92518;-68
2023/11/16 09:41:28;;;;;;;0.40;0.40;;;10.40;99.90;9.90;100256.00;;;;4889222;28;92647;-67
2023/11/16 09:44:01;;;;;;;0.63;0.63;;;10.00;99.90;9.90;100251.00;;;;4892412;28;93114;-68
2023/11/16 09:46:31;;;;;;;1.83;0.73;;;10.00;99.90;10.00;100254.00;;;;4862803;28;94079;-67
2023/11/16 09:49:05;;;;;;;0.50;0.40;;;10.00;99.90;9.90;100250.00;;;;4883528;28;93281;-68
2023/11/16 09:51:34;;;;;;;1.63;0.77;;;10.00;99.90;10.00;100254.00;;;;4889290;28;92393;-68
2023/11/16 09:54:02;;;;;;;0.70;0.50;;;10.00;99.90;10.00;100248.00;;;;4889332;28;92677;-67
2023/11/16 09:56:30;;;;;;;1.40;0.83;;;10.10;99.90;10.00;100246.00;;;;4859642;28;94928;-67
2023/11/16 09:59:06;;;;;;;1.50;0.50;;;10.00;99.90;10.10;100254.00;;;;4889050;28;92994;-68
2023/11/16 10:01:38;;;;;;;0.50;0.30;;;10.10;99.90;10.10;100237.00;;;;4890451;28;93163;-69
2023/11/16 10:04:10;;;;;;;1.07;0.73;;;10.10;99.90;10.20;100246.00;;;;4847376;28;92260;-69
2023/11/16 10:06:37;;;;;;;0.60;0.50;;;10.30;99.90;10.20;100232.00;;;;4885347;28;95011;-68
2023/11/16 10:09:14;;;;;;;0.83;0.80;;;10.30;99.90;10.20;100227.00;;;;4888531;28;115436;-68
2023/11/16 10:11:41;;;;;;;1.63;0.70;;;10.30;99.90;10.30;100230.00;;;;4888578;28;93878;-69
2023/11/16 10:14:07;;;;;;;3.77;1.07;;;10.30;99.90;10.40;100235.00;;;;4869825;28;92889;-69
2023/11/16 10:16:33;;;;;;;1.00;0.50;;;10.40;99.90;10.50;100219.00;;;;4889405;28;93468;-70
2023/11/16 10:19:06;;;;;;;1.40;0.70;;;10.50;99.90;10.70;100218.00;;;;4888067;28;122680;-70
2023/11/16 10:21:39;;;;;;;3.13;0.97;;;10.70;99.90;11.00;100226.00;;;;4891734;28;92893;-69
2023/11/16 10:24:09;;;;;;;0.97;0.60;;;10.90;99.90;11.30;100202.00;;;;4892430;28;93188;-69
2023/11/16 10:26:35;;;;;;;1.87;0.87;;;11.30;99.90;11.40;100206.00;;;;4890078;28;93928;-70
2023/11/16 10:29:01;;;;;;;1.07;0.53;;;11.30;99.90;11.30;100212.00;;;;4888802;28;93701;-69
2023/11/16 10:31:32;;;;;;;0.40;0.40;;;11.30;99.90;11.20;100206.00;;;;4886914;28;109636;-69
2023/11/16 10:33:58;;;;;;;0.50;0.50;;;11.30;99.90;11.10;100194.00;;;;4891349;28;94215;-69
2023/11/16 10:36:27;;;;;;;1.47;0.77;;;11.20;99.90;11.10;100187.00;;;;4885544;28;108359;-69
2023/11/16 10:38:57;;;;;;;1.03;0.73;;;11.10;99.90;10.90;100182.00;;;;4889509;28;93471;-69
2023/11/16 10:41:24;;;;;;;0.47;0.47;;;11.00;99.90;10.90;100189.00;;;;4874588;28;93017;-70
2023/11/16 10:43:56;;;;;;;0.20;0.20;;;10.90;99.90;10.80;100193.00;;;;4884442;28;92903;-70
2023/11/16 10:46:29;;;;;;;2.73;0.63;;;10.90;99.90;10.70;100194.00;;;;4889433;28;93252;-69
2023/11/16 10:48:55;;;;;;;0.47;0.30;;;10.80;99.90;10.70;100175.00;;;;4888239;28;93353;-70
2023/11/16 10:51:22;;;;;;;1.83;0.70;;;10.70;99.90;10.60;100181.00;;;;4886469;28;92702;-68
2023/11/16 10:53:52;;;;;;;1.33;0.73;;;10.70;99.90;10.60;100195.00;;;;4871263;28;92148;-71
2023/11/16 10:56:18;;;;;;;0.50;0.40;;;10.60;99.90;10.60;100197.00;;;;4891700;28;115137;-69
2023/11/16 10:58:47;;;;;;;0.50;0.40;;;10.60;99.90;10.50;100191.00;;;;4873013;28;92736;-71